Time;durP1;ratioP1;P1;durP2;ratioP2;P2;SDS_P1;SDS_P2;PMS_P1;PMS_P2;Temp;Humidity;BMP_temperature;BMP_pressure;BME280_temperature;BME280_humidity;BME280_pressure;Samples;Min_cycle;Max_cycle;Signal;HPM_P1;HPM_P2
2023/07/24 00:02:01;;;;;;;2.83;2.63;;;;;;;;;;5013220;28;20460;-58
2023/07/24 00:04:28;;;;;;;2.53;2.40;;;;;;;;;;5013183;28;20556;-57
2023/07/24 00:06:55;;;;;;;2.87;2.67;;;;;;;;;;5013009;28;20460;-58
2023/07/24 00:09:22;;;;;;;4.40;2.70;;;;;;;;;;5012992;28;20455;-58
2023/07/24 00:11:49;;;;;;;3.00;2.80;;;;;;;;;;5012875;28;20905;-57
2023/07/24 00:14:17;;;;;;;2.97;2.60;;;;;;;;;;5013114;28;20798;-57
2023/07/24 00:16:44;;;;;;;2.80;2.60;;;;;;;;;;5013008;28;20893;-58
2023/07/24 00:19:11;;;;;;;2.80;2.60;;;;;;;;;;5013026;28;20908;-57
2023/07/24 00:21:38;;;;;;;2.43;2.23;;;;;;;;;;5012961;28;20545;-57
2023/07/24 00:24:05;;;;;;;2.93;2.73;;;;;;;;;;5012874;28;20481;-58
2023/07/24 00:26:32;;;;;;;2.70;2.50;;;;;;;;;;5012682;28;20446;-57
2023/07/24 00:29:00;;;;;;;3.23;2.93;;;;;;;;;;5013002;28;20624;-57
2023/07/24 00:31:28;;;;;;;2.50;2.30;;;;;;;;;;5012858;28;20894;-57
2023/07/24 00:33:55;;;;;;;3.90;3.37;;;;;;;;;;5012850;28;20550;-57
2023/07/24 00:36:22;;;;;;;6.17;2.40;;;;;;;;;;5012705;28;20913;-58
2023/07/24 00:38:49;;;;;;;3.93;2.90;;;;;;;;;;5012696;28;20859;-57
2023/07/24 00:41:16;;;;;;;2.57;2.37;;;;;;;;;;5013017;28;20533;-57
2023/07/24 00:43:43;;;;;;;2.30;2.20;;;;;;;;;;5014524;28;21008;-57
2023/07/24 00:46:11;;;;;;;3.60;3.30;;;;;;;;;;5016364;28;20519;-57
2023/07/24 00:48:39;;;;;;;3.40;3.10;;;;;;;;;;5016407;28;20545;-58
2023/07/24 00:51:06;;;;;;;4.97;2.77;;;;;;;;;;5016276;28;20552;-57
2023/07/24 00:53:33;;;;;;;2.67;2.47;;;;;;;;;;5016159;28;20573;-58
2023/07/24 00:56:01;;;;;;;5.23;3.10;;;;;;;;;;5015995;28;20546;-57
2023/07/24 00:58:28;;;;;;;5.90;2.73;;;;;;;;;;5016130;28;20939;-57
2023/07/24 01:00:55;;;;;;;3.47;3.17;;;;;;;;;;5016069;28;21001;-57
2023/07/24 01:03:23;;;;;;;2.83;2.63;;;;;;;;;;5016114;28;20548;-58
2023/07/24 01:05:52;;;;;;;3.10;2.57;;;;;;;;;;5016115;28;20881;-57
2023/07/24 01:08:19;;;;;;;3.37;2.83;;;;;;;;;;5015949;28;20549;-57
2023/07/24 01:10:46;;;;;;;3.20;2.80;;;;;;;;;;5015990;28;20456;-57
2023/07/24 01:13:16;;;;;;;3.20;3.00;;;;;;;;;;5015954;28;20489;-57
2023/07/24 01:15:45;;;;;;;3.40;3.10;;;;;;;;;;5015961;28;20545;-57
2023/07/24 01:18:14;;;;;;;3.63;3.10;;;;;;;;;;5015691;28;20457;-57
2023/07/24 01:20:43;;;;;;;4.40;3.40;;;;;;;;;;5015748;28;20457;-58
2023/07/24 01:23:23;;;;;;;3.10;2.90;;;;;;;;;;5015740;28;20453;-58
2023/07/24 01:25:55;;;;;;;3.33;3.03;;;;;;;;;;5015765;28;20538;-56
2023/07/24 01:28:22;;;;;;;3.10;2.90;;;;;;;;;;5015719;28;20451;-57
2023/07/24 01:30:49;;;;;;;2.70;2.50;;;;;;;;;;5015594;28;20535;-57
2023/07/24 01:33:16;;;;;;;3.70;3.00;;;;;;;;;;5015692;28;20576;-58
2023/07/24 01:35:44;;;;;;;3.33;2.50;;;;;;;;;;5015699;28;20643;-58
2023/07/24 01:38:11;;;;;;;3.10;2.87;;;;;;;;;;5015633;28;20855;-57
2023/07/24 01:40:38;;;;;;;2.60;2.40;;;;;;;;;;5015725;28;20446;-57
2023/07/24 01:43:06;;;;;;;3.33;3.00;;;;;;;;;;5015463;28;20537;-57
2023/07/24 01:45:33;;;;;;;3.10;2.80;;;;;;;;;;5015239;28;20462;-57
2023/07/24 01:48:00;;;;;;;3.07;2.60;;;;;;;;;;5015214;28;20460;-58
2023/07/24 01:50:27;;;;;;;2.40;2.20;;;;;;;;;;5015570;28;20542;-57
2023/07/24 01:52:54;;;;;;;5.37;2.83;;;;;;;;;;5015280;28;20830;-58
2023/07/24 01:55:21;;;;;;;2.90;2.70;;;;;;;;;;5014854;28;20549;-58
2023/07/24 01:57:48;;;;;;;4.77;2.13;;;;;;;;;;5014899;28;20482;-58
2023/07/24 02:00:17;;;;;;;2.50;2.30;;;;;;;;;;5014999;28;20453;-58
2023/07/24 02:02:44;;;;;;;3.03;2.17;;;;;;;;;;5015151;28;20512;-58
2023/07/24 02:05:11;;;;;;;3.73;2.63;;;;;;;;;;5015187;28;20546;-57
2023/07/24 02:07:38;;;;;;;2.00;1.90;;;;;;;;;;5015076;28;20544;-58
2023/07/24 02:10:05;;;;;;;2.97;2.20;;;;;;;;;;5014886;28;20900;-57
2023/07/24 02:12:32;;;;;;;2.50;2.30;;;;;;;;;;5014719;28;20474;-58
2023/07/24 02:14:59;;;;;;;2.60;1.97;;;;;;;;;;5014709;28;21071;-58
2023/07/24 02:17:27;;;;;;;2.20;2.10;;;;;;;;;;5014855;28;20489;-57
2023/07/24 02:19:54;;;;;;;3.97;2.50;;;;;;;;;;5014764;28;20486;-57
2023/07/24 02:22:21;;;;;;;2.40;2.20;;;;;;;;;;5014764;28;20549;-56
2023/07/24 02:24:48;;;;;;;2.47;2.10;;;;;;;;;;5014583;28;20546;-58
2023/07/24 02:27:26;;;;;;;2.50;2.30;;;;;;;;;;5014965;28;20489;-58
2023/07/24 02:29:53;;;;;;;1.83;1.73;;;;;;;;;;5014778;28;20540;-57
2023/07/24 02:32:21;;;;;;;2.50;2.30;;;;;;;;;;5014289;28;20988;-58
2023/07/24 02:34:49;;;;;;;2.53;2.33;;;;;;;;;;5014645;28;20454;-58
2023/07/24 02:37:16;;;;;;;2.03;1.93;;;;;;;;;;5014439;28;20460;-57
2023/07/24 02:39:43;;;;;;;5.33;1.93;;;;;;;;;;5014272;28;20533;-57
2023/07/24 02:42:10;;;;;;;3.13;2.30;;;;;;;;;;5014353;28;20451;-58
2023/07/24 02:44:37;;;;;;;2.77;2.10;;;;;;;;;;5014364;28;20457;-57
2023/07/24 02:47:05;;;;;;;2.43;2.23;;;;;;;;;;5014249;28;20543;-57
2023/07/24 02:49:32;;;;;;;3.57;2.10;;;;;;;;;;5014172;28;20462;-57
2023/07/24 02:52:00;;;;;;;2.63;2.43;;;;;;;;;;5014150;28;20644;-57
2023/07/24 02:54:27;;;;;;;2.57;2.37;;;;;;;;;;5013916;28;20544;-58
2023/07/24 02:56:54;;;;;;;1.70;1.60;;;;;;;;;;5013975;28;20570;-57
2023/07/24 02:59:21;;;;;;;2.77;2.57;;;;;;;;;;5014177;28;20822;-57
2023/07/24 03:01:48;;;;;;;2.00;1.87;;;;;;;;;;5014063;28;20450;-57
2023/07/24 03:04:15;;;;;;;2.13;2.00;;;;;;;;;;5014024;28;20922;-58
2023/07/24 03:06:42;;;;;;;2.53;1.97;;;;;;;;;;5013171;28;20525;-57
2023/07/24 03:09:10;;;;;;;2.20;2.00;;;;;;;;;;5013771;28;20537;-58
2023/07/24 03:11:37;;;;;;;2.00;1.80;;;;;;;;;;5013941;28;20450;-57
2023/07/24 03:14:04;;;;;;;2.20;1.77;;;;;;;;;;5013791;28;20489;-58
2023/07/24 03:16:30;;;;;;;3.27;1.70;;;;;;;;;;5013895;28;20486;-57
2023/07/24 03:18:57;;;;;;;2.50;2.13;;;;;;;;;;5013712;28;20551;-57
2023/07/24 03:21:24;;;;;;;2.43;2.23;;;;;;;;;;5013688;28;20553;-57
2023/07/24 03:23:51;;;;;;;1.83;1.73;;;;;;;;;;5013767;28;20513;-58
2023/07/24 03:26:19;;;;;;;1.70;1.60;;;;;;;;;;5013725;28;20465;-58
2023/07/24 03:28:46;;;;;;;2.10;1.47;;;;;;;;;;5013715;28;20592;-58
2023/07/24 03:31:13;;;;;;;1.80;1.70;;;;;;;;;;5013440;28;21060;-57
2023/07/24 03:33:40;;;;;;;3.90;1.63;;;;;;;;;;5013429;28;20521;-58
2023/07/24 03:36:07;;;;;;;2.43;1.80;;;;;;;;;;5013322;28;20450;-58
2023/07/24 03:38:35;;;;;;;2.70;1.90;;;;;;;;;;5013561;28;20485;-58
2023/07/24 03:41:01;;;;;;;1.97;1.87;;;;;;;;;;5013319;28;20465;-58
2023/07/24 03:43:30;;;;;;;1.93;1.60;;;;;;;;;;5013380;28;20552;-57
2023/07/24 03:45:57;;;;;;;2.30;1.77;;;;;;;;;;5013400;28;20549;-57
2023/07/24 03:48:24;;;;;;;1.33;1.23;;;;;;;;;;5013287;28;20489;-58
2023/07/24 03:50:51;;;;;;;2.20;2.07;;;;;;;;;;5013120;28;20967;-57
2023/07/24 03:53:18;;;;;;;1.60;1.50;;;;;;;;;;5013268;28;20487;-58
2023/07/24 03:55:45;;;;;;;1.33;1.23;;;;;;;;;;5013101;28;20538;-58
2023/07/24 03:58:12;;;;;;;1.47;1.37;;;;;;;;;;5013251;28;20553;-58
2023/07/24 04:00:40;;;;;;;1.73;1.63;;;;;;;;;;5013204;28;20545;-58
2023/07/24 04:03:07;;;;;;;1.20;1.10;;;;;;;;;;5013066;28;20545;-58
2023/07/24 04:05:35;;;;;;;1.50;1.40;;;;;;;;;;5013282;28;20451;-58
2023/07/24 04:08:02;;;;;;;4.40;1.40;;;;;;;;;;5013247;28;20451;-57
2023/07/24 04:10:30;;;;;;;2.37;1.60;;;;;;;;;;5013178;28;20541;-58
2023/07/24 04:12:57;;;;;;;1.40;1.30;;;;;;;;;;5012822;28;20565;-57
2023/07/24 04:15:24;;;;;;;1.20;1.10;;;;;;;;;;5013083;28;20542;-58
2023/07/24 04:17:53;;;;;;;1.63;1.13;;;;;;;;;;5015422;28;20512;-57
2023/07/24 04:20:19;;;;;;;1.30;1.20;;;;;;;;;;5017443;28;20858;-58
2023/07/24 04:22:46;;;;;;;1.20;1.10;;;;;;;;;;5017071;28;20541;-57
2023/07/24 04:25:13;;;;;;;1.73;1.60;;;;;;;;;;5016884;28;20545;-58
2023/07/24 04:27:40;;;;;;;1.40;1.30;;;;;;;;;;5016902;28;20442;-58
2023/07/24 04:30:08;;;;;;;1.70;1.60;;;;;;;;;;5016750;28;20446;-58
2023/07/24 04:32:35;;;;;;;2.60;1.80;;;;;;;;;;5016678;28;20485;-59
2023/07/24 04:35:03;;;;;;;1.80;1.50;;;;;;;;;;5016704;28;20513;-58
2023/07/24 04:37:30;;;;;;;1.70;1.60;;;;;;;;;;5016741;28;20456;-57
2023/07/24 04:39:57;;;;;;;1.40;1.30;;;;;;;;;;5016656;28;20529;-58
2023/07/24 04:42:24;;;;;;;1.97;1.23;;;;;;;;;;5016526;28;20549;-57
2023/07/24 04:44:51;;;;;;;1.50;1.40;;;;;;;;;;5016535;28;20454;-57
2023/07/24 04:47:18;;;;;;;1.30;1.20;;;;;;;;;;5016456;28;20939;-58
2023/07/24 04:49:45;;;;;;;1.90;1.50;;;;;;;;;;5016424;28;20556;-57
2023/07/24 04:52:13;;;;;;;1.30;1.17;;;;;;;;;;5016549;28;20549;-57
2023/07/24 04:54:40;;;;;;;1.33;1.23;;;;;;;;;;5016372;28;20485;-58
2023/07/24 04:57:07;;;;;;;1.40;1.30;;;;;;;;;;5016086;28;20569;-58
2023/07/24 04:59:34;;;;;;;1.20;1.10;;;;;;;;;;5016520;28;21021;-57
2023/07/24 05:02:01;;;;;;;1.30;1.20;;;;;;;;;;5016376;28;20537;-58
2023/07/24 05:04:28;;;;;;;0.90;0.90;;;;;;;;;;5016157;28;21044;-57
2023/07/24 05:06:55;;;;;;;1.40;1.30;;;;;;;;;;5016188;28;20464;-58
2023/07/24 05:09:23;;;;;;;1.40;1.30;;;;;;;;;;5016150;28;20549;-58
2023/07/24 05:11:50;;;;;;;1.40;1.30;;;;;;;;;;5015957;28;20545;-58
2023/07/24 05:14:17;;;;;;;1.03;0.90;;;;;;;;;;5016050;28;20568;-58
2023/07/24 05:16:44;;;;;;;1.13;1.03;;;;;;;;;;5016069;28;20457;-57
2023/07/24 05:19:11;;;;;;;1.33;1.20;;;;;;;;;;5015835;28;20972;-58
2023/07/24 05:21:38;;;;;;;1.37;1.20;;;;;;;;;;5015895;28;20938;-57
2023/07/24 05:24:05;;;;;;;8.57;1.87;;;;;;;;;;5015737;28;20541;-57
2023/07/24 05:26:33;;;;;;;2.17;1.00;;;;;;;;;;5015701;28;20817;-58
2023/07/24 05:29:00;;;;;;;1.40;1.30;;;;;;;;;;5015108;28;20454;-58
2023/07/24 05:31:27;;;;;;;1.30;1.20;;;;;;;;;;5015757;28;20447;-56
2023/07/24 05:33:54;;;;;;;1.33;1.03;;;;;;;;;;5015474;28;20573;-58
2023/07/24 05:36:21;;;;;;;1.37;1.27;;;;;;;;;;5015563;28;21004;-58
2023/07/24 05:38:48;;;;;;;1.63;1.03;;;;;;;;;;5015508;28;20450;-58
2023/07/24 05:41:15;;;;;;;1.20;1.10;;;;;;;;;;5015692;28;20446;-57
2023/07/24 05:43:43;;;;;;;2.50;1.30;;;;;;;;;;5015576;28;20637;-58
2023/07/24 05:46:10;;;;;;;1.60;1.50;;;;;;;;;;5015533;28;20482;-58
2023/07/24 05:48:37;;;;;;;1.93;1.20;;;;;;;;;;5015603;28;20855;-57
2023/07/24 05:51:04;;;;;;;1.63;1.20;;;;;;;;;;5015377;28;20457;-57
2023/07/24 05:53:31;;;;;;;2.60;1.23;;;;;;;;;;5015198;28;20470;-58
2023/07/24 05:55:59;;;;;;;1.40;1.30;;;;;;;;;;5015337;28;20533;-58
2023/07/24 05:58:26;;;;;;;1.20;1.10;;;;;;;;;;5015402;28;20458;-58
2023/07/24 06:00:55;;;;;;;1.30;1.10;;;;;;;;;;5015238;28;20455;-58
2023/07/24 06:03:22;;;;;;;1.20;1.10;;;;;;;;;;5014532;28;20461;-57
2023/07/24 06:05:52;;;;;;;1.70;1.60;;;;;;;;;;5015138;28;20455;-57
2023/07/24 06:08:19;;;;;;;1.63;1.20;;;;;;;;;;5014831;28;20830;-58
2023/07/24 06:10:47;;;;;;;1.20;1.10;;;;;;;;;;5015092;28;20544;-58
2023/07/24 06:13:17;;;;;;;1.33;1.23;;;;;;;;;;5014928;28;20873;-58
2023/07/24 06:15:43;;;;;;;1.47;1.30;;;;;;;;;;5014905;28;20463;-58
2023/07/24 06:18:12;;;;;;;1.10;1.00;;;;;;;;;;5014909;28;20493;-58
2023/07/24 06:20:39;;;;;;;4.63;2.27;;;;;;;;;;5014646;28;20525;-58
2023/07/24 06:23:06;;;;;;;1.20;1.10;;;;;;;;;;5014860;28;20543;-58
2023/07/24 06:25:34;;;;;;;1.87;1.47;;;;;;;;;;5014781;28;20556;-58
2023/07/24 06:28:01;;;;;;;1.60;1.50;;;;;;;;;;5014654;28;20455;-58
2023/07/24 06:30:28;;;;;;;2.50;1.50;;;;;;;;;;5014609;28;20538;-58
2023/07/24 06:32:55;;;;;;;2.27;1.70;;;;;;;;;;5014340;28;20545;-57
2023/07/24 06:35:26;;;;;;;6.60;1.80;;;;;;;;;;5013721;28;20556;-58
2023/07/24 06:37:53;;;;;;;1.70;1.60;;;;;;;;;;5013431;28;20450;-58
2023/07/24 06:40:23;;;;;;;1.70;1.60;;;;;;;;;;5013588;28;20462;-58
2023/07/24 06:42:50;;;;;;;1.80;1.70;;;;;;;;;;5013726;28;20943;-56
2023/07/24 06:45:17;;;;;;;1.83;1.73;;;;;;;;;;5020881;28;20453;-57
2023/07/24 06:47:44;;;;;;;2.33;2.00;;;;;;;;;;5013376;28;20493;-56
2023/07/24 06:50:11;;;;;;;2.10;2.00;;;;;;;;;;5013795;28;20513;-57
2023/07/24 06:52:39;;;;;;;2.47;1.90;;;;;;;;;;5014296;28;20545;-58
2023/07/24 06:55:07;;;;;;;2.13;2.03;;;;;;;;;;5013822;28;21008;-58
2023/07/24 06:57:34;;;;;;;2.27;1.67;;;;;;;;;;5013821;28;20516;-58
2023/07/24 07:00:01;;;;;;;2.43;2.03;;;;;;;;;;5013938;28;20485;-57
2023/07/24 07:02:28;;;;;;;2.17;2.07;;;;;;;;;;5013732;28;20447;-57
2023/07/24 07:04:55;;;;;;;2.17;1.97;;;;;;;;;;5013819;28;20451;-58
2023/07/24 07:07:22;;;;;;;2.30;2.10;;;;;;;;;;5019447;28;21012;-57
2023/07/24 07:09:50;;;;;;;2.47;2.23;;;;;;;;;;5022528;28;20438;-57
2023/07/24 07:12:17;;;;;;;2.30;2.13;;;;;;;;;;5024245;28;20533;-57
2023/07/24 07:14:44;;;;;;;2.43;2.33;;;;;;;;;;5013685;28;20548;-57
2023/07/24 07:17:11;;;;;;;2.00;1.90;;;;;;;;;;5013815;28;20493;-57
2023/07/24 07:19:38;;;;;;;2.90;2.60;;;;;;;;;;5013825;28;20545;-57
2023/07/24 07:22:06;;;;;;;2.10;2.00;;;;;;;;;;5013685;28;20461;-58
2023/07/24 07:24:33;;;;;;;2.90;2.70;;;;;;;;;;5013521;28;20889;-57
2023/07/24 07:27:01;;;;;;;2.40;2.20;;;;;;;;;;5015028;28;20878;-58
2023/07/24 07:29:28;;;;;;;2.33;2.13;;;;;;;;;;5033222;28;20481;-57
2023/07/24 07:31:55;;;;;;;3.10;2.17;;;;;;;;;;5033398;28;20659;-58
2023/07/24 07:34:22;;;;;;;2.43;2.00;;;;;;;;;;5032949;28;21079;-57
2023/07/24 07:36:49;;;;;;;2.00;1.90;;;;;;;;;;5033062;28;20506;-57
2023/07/24 07:39:16;;;;;;;2.70;2.50;;;;;;;;;;5033048;28;20881;-57
2023/07/24 07:41:43;;;;;;;2.13;2.03;;;;;;;;;;5032856;28;20458;-57
2023/07/24 07:44:11;;;;;;;2.20;2.10;;;;;;;;;;5032889;28;20463;-55
2023/07/24 07:46:38;;;;;;;2.33;2.13;;;;;;;;;;5032975;28;20453;-53
2023/07/24 07:49:05;;;;;;;2.10;2.00;;;;;;;;;;5032967;28;20500;-57
2023/07/24 07:51:32;;;;;;;2.47;2.27;;;;;;;;;;5032628;28;20479;-58
2023/07/24 07:53:59;;;;;;;2.23;2.10;;;;;;;;;;5032682;28;20449;-59
2023/07/24 07:56:26;;;;;;;1.70;1.60;;;;;;;;;;5032617;28;20488;-59
2023/07/24 07:58:54;;;;;;;2.30;2.10;;;;;;;;;;5032967;28;20454;-59
2023/07/24 08:01:22;;;;;;;2.20;2.10;;;;;;;;;;5021759;28;20451;-59
2023/07/24 08:03:49;;;;;;;2.53;2.03;;;;;;;;;;5013098;28;20537;-59
2023/07/24 08:06:16;;;;;;;5.33;2.03;;;;;;;;;;5012995;28;20450;-58
2023/07/24 08:08:43;;;;;;;2.03;1.93;;;;;;;;;;5012934;28;20500;-57
2023/07/24 08:11:10;;;;;;;1.83;1.73;;;;;;;;;;5031473;28;20817;-58
2023/07/24 08:13:37;;;;;;;2.27;1.57;;;;;;;;;;5027260;28;20961;-58
2023/07/24 08:16:04;;;;;;;2.30;1.87;;;;;;;;;;5032685;28;20845;-58
2023/07/24 08:18:32;;;;;;;1.80;1.70;;;;;;;;;;5032899;28;20457;-59
2023/07/24 08:20:59;;;;;;;2.00;1.90;;;;;;;;;;5032574;28;20460;-58
2023/07/24 08:23:26;;;;;;;1.53;1.43;;;;;;;;;;5032576;28;20468;-58
2023/07/24 08:25:54;;;;;;;2.57;2.13;;;;;;;;;;5025492;28;20829;-58
2023/07/24 08:28:21;;;;;;;2.00;1.90;;;;;;;;;;5012821;28;20465;-58
2023/07/24 08:30:48;;;;;;;1.70;1.60;;;;;;;;;;5012817;28;20454;-58
2023/07/24 08:33:15;;;;;;;1.93;1.83;;;;;;;;;;5012819;28;20447;-58
2023/07/24 08:35:43;;;;;;;2.23;1.67;;;;;;;;;;5012731;28;20478;-58
2023/07/24 08:38:10;;;;;;;4.83;1.70;;;;;;;;;;5012640;28;20947;-58
2023/07/24 08:40:39;;;;;;;1.60;1.50;;;;;;;;;;5012937;28;20541;-56
2023/07/24 08:43:07;;;;;;;2.53;1.53;;;;;;;;;;5012756;28;20780;-57
2023/07/24 08:45:35;;;;;;;1.87;1.77;;;;;;;;;;5012646;28;20715;-58
2023/07/24 08:48:02;;;;;;;1.87;1.77;;;;;;;;;;5012620;28;20442;-59
2023/07/24 08:50:30;;;;;;;2.20;1.63;;;;;;;;;;5012415;28;20446;-59
2023/07/24 08:52:59;;;;;;;1.50;1.40;;;;;;;;;;5012609;28;20938;-58
2023/07/24 08:55:27;;;;;;;1.60;1.50;;;;;;;;;;5012545;28;20486;-58
2023/07/24 08:57:54;;;;;;;1.60;1.50;;;;;;;;;;5012407;28;21070;-57
2023/07/24 09:00:21;;;;;;;1.53;1.43;;;;;;;;;;5012537;28;20454;-58
2023/07/24 09:02:48;;;;;;;2.07;1.97;;;;;;;;;;5012390;28;20457;-53
2023/07/24 09:05:16;;;;;;;2.00;1.40;;;;;;;;;;5027102;28;20484;-57
2023/07/24 09:07:43;;;;;;;1.73;1.27;;;;;;;;;;5035955;28;20446;-58
2023/07/24 09:10:12;;;;;;;2.43;1.63;;;;;;;;;;5035564;28;20449;-58
2023/07/24 09:12:39;;;;;;;1.83;1.67;;;;;;;;;;5035749;28;20485;-59
2023/07/24 09:15:08;;;;;;;2.47;1.57;;;;;;;;;;5035412;28;20473;-56
2023/07/24 09:17:35;;;;;;;1.50;1.40;;;;;;;;;;5027727;28;20490;-56
2023/07/24 09:20:03;;;;;;;1.97;1.87;;;;;;;;;;5016092;28;20857;-57
2023/07/24 09:22:32;;;;;;;1.53;1.40;;;;;;;;;;5016016;28;20454;-58
2023/07/24 09:24:59;;;;;;;2.40;1.50;;;;;;;;;;5020777;28;20451;-59
2023/07/24 09:27:29;;;;;;;1.70;1.47;;;;;;;;;;5023837;28;20447;-58
2023/07/24 09:29:56;;;;;;;1.77;1.67;;;;;;;;;;5024789;28;20817;-57
2023/07/24 09:32:23;;;;;;;1.70;1.50;;;;;;;;;;5034633;28;20445;-58
2023/07/24 09:34:51;;;;;;;2.77;1.30;;;;;;;;;;5035472;28;20473;-58
2023/07/24 09:37:28;;;;;;;2.73;2.20;;;;;;;;;;5035456;28;20450;-58
2023/07/24 09:39:55;;;;;;;2.23;2.03;;;;;;;;;;5024700;28;20446;-58
2023/07/24 09:42:40;;;;;;;1.87;1.77;;;;;;;;;;5025728;28;21015;-58
2023/07/24 09:45:10;;;;;;;2.13;1.50;;;;;;;;;;5032357;28;20849;-58
2023/07/24 09:47:37;;;;;;;1.77;1.67;;;;;;;;;;5034998;28;20996;-58
2023/07/24 09:50:04;;;;;;;2.90;1.60;;;;;;;;;;5035219;28;20787;-58
2023/07/24 09:52:32;;;;;;;5.10;2.13;;;;;;;;;;5034588;28;20453;-57
2023/07/24 09:55:03;;;;;;;1.60;1.50;;;;;;;;;;5023054;28;21525;-59
2023/07/24 09:57:32;;;;;;;3.33;1.33;;;;;;;;;;5014495;28;20564;-59
2023/07/24 09:59:59;;;;;;;1.70;1.50;;;;;;;;;;5015119;28;20814;-57
2023/07/24 10:02:29;;;;;;;2.03;1.93;;;;;;;;;;5014912;28;20446;-60
2023/07/24 10:04:57;;;;;;;2.17;2.00;;;;;;;;;;5014467;28;20534;-59
2023/07/24 10:07:24;;;;;;;2.00;1.90;;;;;;;;;;5014547;28;20457;-59
2023/07/24 10:09:51;;;;;;;4.13;2.13;;;;;;;;;;5014544;28;21037;-58
2023/07/24 10:12:19;;;;;;;2.10;2.00;;;;;;;;;;5014947;28;20491;-57
2023/07/24 10:14:48;;;;;;;2.57;2.37;;;;;;;;;;5014030;28;20478;-59
2023/07/24 10:17:25;;;;;;;2.47;2.07;;;;;;;;;;5014435;28;20931;-59
2023/07/24 10:20:03;;;;;;;2.73;2.53;;;;;;;;;;5014250;28;20478;-58
2023/07/24 10:22:30;;;;;;;2.73;2.53;;;;;;;;;;5014825;28;21673;-59
2023/07/24 10:24:57;;;;;;;3.20;2.90;;;;;;;;;;5014739;28;20481;-60
2023/07/24 10:27:25;;;;;;;5.53;2.70;;;;;;;;;;5014615;28;20447;-60
2023/07/24 10:29:59;;;;;;;2.23;2.13;;;;;;;;;;5014752;28;20473;-60
2023/07/24 10:32:26;;;;;;;2.33;2.23;;;;;;;;;;5014462;28;20470;-60
2023/07/24 10:35:01;;;;;;;2.53;2.33;;;;;;;;;;5014366;28;20557;-60
2023/07/24 10:37:35;;;;;;;2.43;2.33;;;;;;;;;;5014540;28;20657;-60
2023/07/24 10:40:03;;;;;;;3.07;2.50;;;;;;;;;;5014485;28;20454;-58
2023/07/24 10:42:33;;;;;;;3.10;2.83;;;;;;;;;;5014081;28;21016;-58
2023/07/24 10:45:05;;;;;;;2.77;2.57;;;;;;;;;;5014211;28;20564;-58
2023/07/24 10:47:32;;;;;;;3.50;3.20;;;;;;;;;;5014176;28;20447;-58
2023/07/24 10:50:02;;;;;;;2.83;2.63;;;;;;;;;;5014187;28;20461;-58
2023/07/24 10:52:29;;;;;;;3.87;3.27;;;;;;;;;;5014215;28;20924;-59
2023/07/24 10:54:56;;;;;;;2.90;2.70;;;;;;;;;;5014175;28;20461;-59
2023/07/24 10:57:27;;;;;;;3.50;3.00;;;;;;;;;;5014020;28;20569;-59
2023/07/24 10:59:54;;;;;;;2.73;2.53;;;;;;;;;;5013904;28;20899;-59
2023/07/24 11:02:21;;;;;;;3.30;3.10;;;;;;;;;;5013907;28;20457;-60
2023/07/24 11:04:48;;;;;;;3.10;2.90;;;;;;;;;;5013850;28;20986;-59
2023/07/24 11:07:16;;;;;;;3.07;2.80;;;;;;;;;;5013761;28;20446;-58
2023/07/24 11:09:44;;;;;;;3.20;3.00;;;;;;;;;;5013685;28;20459;-58
2023/07/24 11:12:12;;;;;;;2.80;2.60;;;;;;;;;;5013626;28;20938;-59
2023/07/24 11:14:47;;;;;;;5.20;3.10;;;;;;;;;;5013766;28;20542;-60
2023/07/24 11:17:14;;;;;;;3.27;3.00;;;;;;;;;;5013726;28;20879;-60
2023/07/24 11:19:41;;;;;;;3.17;2.90;;;;;;;;;;5013605;28;20482;-59
2023/07/24 11:22:08;;;;;;;3.70;3.30;;;;;;;;;;5013605;28;20545;-59
2023/07/24 11:24:43;;;;;;;4.50;3.10;;;;;;;;;;5012900;28;20451;-59
2023/07/24 11:27:10;;;;;;;3.33;2.90;;;;;;;;;;5012642;28;20942;-61
2023/07/24 11:29:38;;;;;;;3.53;3.27;;;;;;;;;;5013167;28;20435;-61
2023/07/24 11:32:05;;;;;;;3.37;3.10;;;;;;;;;;5013513;28;20541;-58
2023/07/24 11:34:32;;;;;;;3.40;3.20;;;;;;;;;;5013348;28;21021;-58
2023/07/24 11:36:59;;;;;;;3.40;3.10;;;;;;;;;;5013387;28;20489;-58
2023/07/24 11:39:26;;;;;;;3.53;3.23;;;;;;;;;;5013170;28;20451;-58
2023/07/24 11:41:55;;;;;;;3.30;3.00;;;;;;;;;;5013540;28;20454;-58
2023/07/24 11:44:26;;;;;;;3.67;3.40;;;;;;;;;;5013439;28;20504;-58
2023/07/24 11:47:01;;;;;;;3.70;3.40;;;;;;;;;;5013295;28;20458;-59
2023/07/24 11:49:31;;;;;;;4.03;3.73;;;;;;;;;;5013143;28;20442;-58
2023/07/24 11:52:09;;;;;;;4.53;3.87;;;;;;;;;;5013235;28;20537;-59
2023/07/24 11:54:36;;;;;;;3.60;3.30;;;;;;;;;;5013166;28;20446;-59
2023/07/24 11:57:04;;;;;;;4.47;3.40;;;;;;;;;;5012531;28;20497;-59
2023/07/24 11:59:39;;;;;;;3.20;2.90;;;;;;;;;;5012641;28;20482;-60
2023/07/24 12:02:07;;;;;;;4.30;3.87;;;;;;;;;;5012658;28;20434;-60
2023/07/24 12:04:34;;;;;;;4.20;3.60;;;;;;;;;;5013089;28;20451;-61
2023/07/24 12:07:01;;;;;;;4.87;3.90;;;;;;;;;;5012913;28;20541;-56
2023/07/24 12:09:31;;;;;;;4.23;3.83;;;;;;;;;;5012886;28;20541;-59
2023/07/24 12:11:59;;;;;;;4.10;3.70;;;;;;;;;;5012694;28;20529;-59
2023/07/24 12:14:28;;;;;;;4.77;4.37;;;;;;;;;;5012161;28;20540;-59
2023/07/24 12:17:01;;;;;;;5.90;3.63;;;;;;;;;;5017682;28;20523;-57
2023/07/24 12:19:28;;;;;;;3.63;3.43;;;;;;;;;;5012702;28;20447;-60
2023/07/24 12:21:55;;;;;;;4.90;3.63;;;;;;;;;;5012984;28;20537;-54
2023/07/24 12:24:22;;;;;;;4.43;4.03;;;;;;;;;;5012795;28;20954;-56
2023/07/24 12:26:49;;;;;;;4.90;4.40;;;;;;;;;;5012320;28;20980;-53
2023/07/24 12:29:16;;;;;;;7.20;4.33;;;;;;;;;;5012367;28;20461;-52
2023/07/24 12:31:44;;;;;;;8.33;3.80;;;;;;;;;;5012572;28;20442;-52
2023/07/24 12:34:11;;;;;;;4.17;3.77;;;;;;;;;;5012626;28;20589;-57
2023/07/24 12:36:38;;;;;;;5.70;4.17;;;;;;;;;;5012627;28;21035;-57
2023/07/24 12:39:05;;;;;;;6.23;4.07;;;;;;;;;;5015147;28;20541;-56
2023/07/24 12:41:32;;;;;;;4.80;4.40;;;;;;;;;;5016554;28;20454;-56
2023/07/24 12:43:59;;;;;;;5.20;3.60;;;;;;;;;;5016983;28;20461;-57
2023/07/24 12:46:25;;;;;;;5.13;3.87;;;;;;;;;;5015982;28;20862;-56
2023/07/24 12:48:54;;;;;;;5.03;4.63;;;;;;;;;;5016168;28;20447;-57
2023/07/24 12:51:21;;;;;;;4.20;3.70;;;;;;;;;;5016399;28;20585;-56
2023/07/24 12:53:48;;;;;;;5.93;3.97;;;;;;;;;;5016494;28;20482;-56
2023/07/24 12:56:15;;;;;;;4.00;3.70;;;;;;;;;;5015820;28;20486;-57
2023/07/24 12:58:44;;;;;;;4.77;4.33;;;;;;;;;;5016015;28;21025;-56
2023/07/24 13:01:11;;;;;;;4.63;3.50;;;;;;;;;;5015611;28;20458;-56
2023/07/24 13:03:37;;;;;;;4.33;3.83;;;;;;;;;;5016331;28;20451;-56
2023/07/24 13:06:06;;;;;;;3.80;3.50;;;;;;;;;;5016263;28;20537;-56
2023/07/24 13:08:33;;;;;;;4.07;3.73;;;;;;;;;;5016078;28;20512;-56
2023/07/24 13:11:00;;;;;;;8.57;4.17;;;;;;;;;;5015752;28;20453;-57
2023/07/24 13:13:27;;;;;;;4.57;4.17;;;;;;;;;;5016068;28;20500;-56
2023/07/24 13:15:54;;;;;;;3.37;3.07;;;;;;;;;;5016016;28;20478;-57
2023/07/24 13:18:21;;;;;;;4.87;4.47;;;;;;;;;;5015989;28;20457;-57
2023/07/24 13:20:48;;;;;;;4.57;4.10;;;;;;;;;;5015935;28;20886;-56
2023/07/24 13:23:16;;;;;;;4.80;4.10;;;;;;;;;;5015705;28;21006;-57
2023/07/24 13:25:43;;;;;;;3.97;3.67;;;;;;;;;;5015753;28;20454;-57
2023/07/24 13:28:10;;;;;;;3.90;3.60;;;;;;;;;;5015832;28;20538;-54
2023/07/24 13:30:37;;;;;;;4.33;3.40;;;;;;;;;;5015892;28;20551;-58
2023/07/24 13:33:04;;;;;;;3.53;3.23;;;;;;;;;;5015577;28;20458;-56
2023/07/24 13:35:31;;;;;;;3.80;3.50;;;;;;;;;;5015105;28;20897;-55
2023/07/24 13:37:58;;;;;;;3.80;3.33;;;;;;;;;;5015032;28;20482;-57
2023/07/24 13:40:26;;;;;;;6.50;3.40;;;;;;;;;;5014989;28;20449;-56
2023/07/24 13:42:53;;;;;;;3.33;3.03;;;;;;;;;;5015365;28;20530;-54
2023/07/24 13:45:20;;;;;;;7.73;3.73;;;;;;;;;;5015550;28;20545;-55
2023/07/24 13:47:47;;;;;;;3.30;3.10;;;;;;;;;;5015524;28;20458;-55
2023/07/24 13:50:14;;;;;;;3.60;3.30;;;;;;;;;;5014426;28;20545;-56
2023/07/24 13:52:41;;;;;;;4.30;3.50;;;;;;;;;;5014794;28;20439;-56
2023/07/24 13:55:08;;;;;;;3.73;3.43;;;;;;;;;;5024113;28;20884;-55
2023/07/24 13:57:36;;;;;;;3.73;3.03;;;;;;;;;;5031875;28;20841;-56
2023/07/24 14:00:04;;;;;;;3.70;3.40;;;;;;;;;;5034940;28;20450;-54
2023/07/24 14:02:31;;;;;;;7.67;3.63;;;;;;;;;;5034942;28;20449;-57
2023/07/24 14:04:58;;;;;;;3.63;3.33;;;;;;;;;;5034867;28;20523;-55
2023/07/24 14:07:25;;;;;;;4.13;3.10;;;;;;;;;;5026316;28;20443;-56
2023/07/24 14:09:52;;;;;;;3.30;2.70;;;;;;;;;;5023183;28;20449;-56
2023/07/24 14:12:18;;;;;;;3.87;3.37;;;;;;;;;;5020825;28;20442;-57
2023/07/24 14:14:47;;;;;;;5.73;2.97;;;;;;;;;;5023323;28;20607;-54
2023/07/24 14:17:14;;;;;;;3.60;3.23;;;;;;;;;;5021668;28;21018;-56
2023/07/24 14:19:41;;;;;;;4.40;3.07;;;;;;;;;;5023408;28;20479;-56
2023/07/24 14:22:08;;;;;;;4.93;3.60;;;;;;;;;;5025164;28;20540;-55
2023/07/24 14:24:35;;;;;;;3.10;2.77;;;;;;;;;;5028861;28;21017;-57
2023/07/24 14:27:02;;;;;;;3.07;2.80;;;;;;;;;;5027679;28;20540;-53
2023/07/24 14:29:29;;;;;;;3.10;2.90;;;;;;;;;;5020358;28;20453;-53
2023/07/24 14:31:57;;;;;;;3.57;3.00;;;;;;;;;;5030633;28;20449;-57
2023/07/24 14:34:24;;;;;;;5.97;3.00;;;;;;;;;;5016288;28;20477;-56
2023/07/24 14:36:52;;;;;;;3.07;2.87;;;;;;;;;;5027821;28;20905;-55
2023/07/24 14:39:19;;;;;;;4.27;3.77;;;;;;;;;;5024314;28;20493;-54
2023/07/24 14:41:46;;;;;;;3.80;3.50;;;;;;;;;;5024467;28;20538;-56
2023/07/24 14:44:13;;;;;;;3.63;3.33;;;;;;;;;;5034174;28;20449;-56
2023/07/24 14:46:40;;;;;;;3.87;3.40;;;;;;;;;;5034106;28;20544;-55